PWSweather.com
Personal Weather Stations
Station Observations
WISCHPK61
Green Bay Schmitt Park, Green Bay, WI 54311

Green Bay Schmitt ParkGreen Bay, WI 54311

Lat: 44.514277, Lon: -87.935067

Elevation: 735

Station Type: Acu Rite Pro Weather Center model 02032C

http://greenbayweathercam.com

High Low Average
Temperature 48.7°F9.3°C 28.2°F-2.1°C 36.8°F2.7°C
Dew Point 45.0°F7.2°C 17.2°F-8.2°C 32.7°F0.4°C
Winds 2.3 mph 3.7 kmh Calm Calm Calm SECalm SE
Wind Gusts 2.3 mph3.7 kmh -- --
Humidity 99% 42% 87%
Pressure 29.76 in1007.8 mb 29.52 in999.7 mb -
Precipitation 0.00 in0.0 mm - -
Hour Temp Dew Point Humidity Winds Wind Gusts Pressure Precip Precip Rate Daily Precip Total
12:00 AM 32.4°F0.2°C 32.2°F0.1°C 99% Calm Calm -- 29.58 in1001.7 mb - 0.00 in0.0 mm 0.00 in0.0 mm
01:00 AM 31.1°F-0.5°C 25.7°F-3.5°C 80% Calm Calm -- 29.60 in1002.4 mb - 0.00 in0.0 mm 0.00 in0.0 mm
02:00 AM 30.2°F-1.0°C 17.2°F-8.2°C 58% Calm Calm -- 29.63 in1003.4 mb - 0.00 in0.0 mm 0.00 in0.0 mm
03:00 AM 29.7°F-1.3°C 23.1°F-4.9°C 76% Calm Calm -- 29.63 in1003.4 mb - 0.00 in0.0 mm 0.00 in0.0 mm
04:00 AM 29.3°F-1.5°C 23.3°F-4.8°C 78% Calm Calm -- 29.65 in1004.1 mb - 0.00 in0.0 mm 0.00 in0.0 mm
05:00 AM 28.2°F-2.1°C 23.1°F-4.9°C 81% Calm Calm -- 29.67 in1004.7 mb - 0.00 in0.0 mm 0.00 in0.0 mm
06:00 AM 28.9°F-1.7°C 28.7°F-1.8°C 99% Calm Calm -- 29.68 in1005.1 mb - 0.00 in0.0 mm 0.00 in0.0 mm
07:00 AM 28.2°F-2.1°C 25.1°F-3.8°C 88% Calm Calm -- 29.70 in1005.8 mb - 0.00 in0.0 mm 0.00 in0.0 mm
08:00 AM 31.5°F-0.3°C 31.3°F-0.4°C 99% Calm Calm 1.2 mph1.9 kmh 29.72 in1006.4 mb - 0.00 in0.0 mm 0.00 in0.0 mm
09:00 AM 37.2°F2.9°C 32.5°F0.3°C 83% 1.2 mph S1.9 kmh S 2.3 mph3.7 kmh 29.74 in1007.1 mb - 0.00 in0.0 mm 0.00 in0.0 mm
10:00 AM 43.2°F6.2°C 43.0°F6.1°C 99% Calm Calm -- 29.74 in1007.1 mb - 0.00 in0.0 mm 0.00 in0.0 mm
11:00 AM 45.2°F7.3°C 45.0°F7.2°C 99% 2.3 mph ESE3.7 kmh ESE 2.3 mph3.7 kmh 29.76 in1007.8 mb - 0.00 in0.0 mm 0.00 in0.0 mm
12:00 PM 45.1°F7.3°C 44.8°F7.1°C 99% Calm Calm -- 29.74 in1007.1 mb - 0.00 in0.0 mm 0.00 in0.0 mm
01:00 PM 48.7°F9.3°C 26.6°F-3.0°C 42% Calm Calm -- 29.71 in1006.1 mb - 0.00 in0.0 mm 0.00 in0.0 mm
02:00 PM 45.9°F7.7°C 29.2°F-1.6°C 52% Calm Calm -- 29.69 in1005.4 mb - 0.00 in0.0 mm 0.00 in0.0 mm
03:00 PM 45.1°F7.3°C 32.0°F0.0°C 60% Calm Calm -- 29.67 in1004.7 mb - 0.00 in0.0 mm 0.00 in0.0 mm
04:00 PM 44.2°F6.8°C 43.9°F6.6°C 99% Calm Calm -- 29.65 in1004.1 mb - 0.00 in0.0 mm 0.00 in0.0 mm
05:00 PM 42.7°F5.9°C 42.5°F5.8°C 99% Calm Calm -- 29.63 in1003.4 mb - 0.00 in0.0 mm 0.00 in0.0 mm
06:00 PM 40.3°F4.6°C 40.0°F4.4°C 99% Calm Calm -- 29.63 in1003.4 mb - 0.00 in0.0 mm 0.00 in0.0 mm
07:00 PM 37.9°F3.3°C 37.6°F3.1°C 99% Calm Calm -- 29.61 in1002.7 mb - 0.00 in0.0 mm 0.00 in0.0 mm
08:00 PM 35.8°F2.1°C 35.5°F1.9°C 99% Calm Calm -- 29.60 in1002.4 mb - 0.00 in0.0 mm 0.00 in0.0 mm
09:00 PM 35.1°F1.7°C 34.8°F1.6°C 99% Calm Calm -- 29.58 in1001.7 mb - 0.00 in0.0 mm 0.00 in0.0 mm
10:00 PM 34.3°F1.3°C 34.0°F1.1°C 99% Calm Calm -- 29.57 in1001.4 mb - 0.00 in0.0 mm 0.00 in0.0 mm
11:00 PM 33.4°F0.8°C 33.1°F0.6°C 99% Calm Calm -- 29.55 in1000.7 mb - 0.00 in0.0 mm 0.00 in0.0 mm